sensor_id;sensor_type;location;lat;lon;timestamp;temperature;humidity
23544;DHT22;11950;51.230;4.012;2023-02-28T00:01:17;2.70;99.90
23544;DHT22;11950;51.230;4.012;2023-02-28T00:03:44;2.70;99.90
23544;DHT22;11950;51.230;4.012;2023-02-28T00:06:10;2.70;99.90
23544;DHT22;11950;51.230;4.012;2023-02-28T00:08:37;2.70;99.90
23544;DHT22;11950;51.230;4.012;2023-02-28T00:11:06;2.70;99.90
23544;DHT22;11950;51.230;4.012;2023-02-28T00:13:35;2.70;99.90
23544;DHT22;11950;51.230;4.012;2023-02-28T00:16:11;2.70;99.90
23544;DHT22;11950;51.230;4.012;2023-02-28T00:18:39;2.70;99.90
23544;DHT22;11950;51.230;4.012;2023-02-28T00:21:06;2.70;99.90
23544;DHT22;11950;51.230;4.012;2023-02-28T00:23:33;2.60;99.90
23544;DHT22;11950;51.230;4.012;2023-02-28T00:25:59;2.60;99.90
23544;DHT22;11950;51.230;4.012;2023-02-28T00:28:26;2.60;99.90
23544;DHT22;11950;51.230;4.012;2023-02-28T00:30:52;2.60;99.90
23544;DHT22;11950;51.230;4.012;2023-02-28T00:33:19;2.60;99.90
23544;DHT22;11950;51.230;4.012;2023-02-28T00:35:45;2.60;99.90
23544;DHT22;11950;51.230;4.012;2023-02-28T00:38:13;2.60;99.90
23544;DHT22;11950;51.230;4.012;2023-02-28T00:40:39;2.60;99.90
23544;DHT22;11950;51.230;4.012;2023-02-28T00:43:06;2.60;99.90
23544;DHT22;11950;51.230;4.012;2023-02-28T00:45:32;2.50;99.90
23544;DHT22;11950;51.230;4.012;2023-02-28T00:47:58;2.50;99.90
23544;DHT22;11950;51.230;4.012;2023-02-28T00:50:25;2.50;99.90
23544;DHT22;11950;51.230;4.012;2023-02-28T00:52:51;2.50;99.90
23544;DHT22;11950;51.230;4.012;2023-02-28T00:55:17;2.50;99.90
23544;DHT22;11950;51.230;4.012;2023-02-28T00:57:44;2.50;99.90
23544;DHT22;11950;51.230;4.012;2023-02-28T01:00:11;2.40;99.90
23544;DHT22;11950;51.230;4.012;2023-02-28T01:02:37;2.50;99.90
23544;DHT22;11950;51.230;4.012;2023-02-28T01:05:04;2.50;99.90
23544;DHT22;11950;51.230;4.012;2023-02-28T01:07:31;2.50;99.90
23544;DHT22;11950;51.230;4.012;2023-02-28T01:09:57;2.50;99.90
23544;DHT22;11950;51.230;4.012;2023-02-28T01:12:24;2.50;99.90
23544;DHT22;11950;51.230;4.012;2023-02-28T01:14:51;2.40;99.90
23544;DHT22;11950;51.230;4.012;2023-02-28T01:17:17;2.40;99.90
23544;DHT22;11950;51.230;4.012;2023-02-28T01:19:43;2.30;99.90
23544;DHT22;11950;51.230;4.012;2023-02-28T01:22:10;2.30;99.90
23544;DHT22;11950;51.230;4.012;2023-02-28T01:24:37;2.30;99.90
23544;DHT22;11950;51.230;4.012;2023-02-28T01:27:03;2.30;99.90
23544;DHT22;11950;51.230;4.012;2023-02-28T01:29:30;2.30;99.90
23544;DHT22;11950;51.230;4.012;2023-02-28T01:31:56;2.30;99.90
23544;DHT22;11950;51.230;4.012;2023-02-28T01:34:23;2.30;99.90
23544;DHT22;11950;51.230;4.012;2023-02-28T01:36:50;2.30;99.90
23544;DHT22;11950;51.230;4.012;2023-02-28T01:39:18;2.20;99.90
23544;DHT22;11950;51.230;4.012;2023-02-28T01:41:45;2.20;99.90
23544;DHT22;11950;51.230;4.012;2023-02-28T01:47:15;2.30;99.90
23544;DHT22;11950;51.230;4.012;2023-02-28T01:49:41;2.30;99.90
23544;DHT22;11950;51.230;4.012;2023-02-28T01:52:10;2.20;99.90
23544;DHT22;11950;51.230;4.012;2023-02-28T01:54:40;2.20;99.90
23544;DHT22;11950;51.230;4.012;2023-02-28T01:57:10;2.20;99.90
23544;DHT22;11950;51.230;4.012;2023-02-28T01:59:40;2.20;99.90
23544;DHT22;11950;51.230;4.012;2023-02-28T02:02:16;2.10;99.90
23544;DHT22;11950;51.230;4.012;2023-02-28T02:05:03;2.20;99.90
23544;DHT22;11950;51.230;4.012;2023-02-28T02:07:33;2.10;99.90
23544;DHT22;11950;51.230;4.012;2023-02-28T02:10:06;2.00;99.90
23544;DHT22;11950;51.230;4.012;2023-02-28T02:26:52;1.90;99.90
23544;DHT22;11950;51.230;4.012;2023-02-28T02:29:47;1.90;99.90
23544;DHT22;11950;51.230;4.012;2023-02-28T02:41:01;2.10;99.90
23544;DHT22;11950;51.230;4.012;2023-02-28T02:43:44;2.10;99.90
23544;DHT22;11950;51.230;4.012;2023-02-28T02:46:19;2.10;99.90
23544;DHT22;11950;51.230;4.012;2023-02-28T02:48:46;2.10;99.90
23544;DHT22;11950;51.230;4.012;2023-02-28T02:51:16;2.00;99.90
23544;DHT22;11950;51.230;4.012;2023-02-28T02:54:00;2.10;99.90
23544;DHT22;11950;51.230;4.012;2023-02-28T02:56:32;2.10;99.90
23544;DHT22;11950;51.230;4.012;2023-02-28T02:59:03;2.10;99.90
23544;DHT22;11950;51.230;4.012;2023-02-28T03:01:31;2.10;99.90
23544;DHT22;11950;51.230;4.012;2023-02-28T03:04:03;2.10;99.90
23544;DHT22;11950;51.230;4.012;2023-02-28T03:06:31;2.10;99.90
23544;DHT22;11950;51.230;4.012;2023-02-28T03:08:57;2.10;99.90
23544;DHT22;11950;51.230;4.012;2023-02-28T03:11:26;2.20;99.90
23544;DHT22;11950;51.230;4.012;2023-02-28T03:17:02;2.30;99.90
23544;DHT22;11950;51.230;4.012;2023-02-28T03:28:18;2.40;99.90
23544;DHT22;11950;51.230;4.012;2023-02-28T03:31:01;2.50;99.90
23544;DHT22;11950;51.230;4.012;2023-02-28T03:33:38;2.50;99.90
23544;DHT22;11950;51.230;4.012;2023-02-28T03:36:15;2.60;99.90
23544;DHT22;11950;51.230;4.012;2023-02-28T03:38:59;2.60;99.90
23544;DHT22;11950;51.230;4.012;2023-02-28T03:41:35;2.70;99.90
23544;DHT22;11950;51.230;4.012;2023-02-28T03:44:07;2.80;99.90
23544;DHT22;11950;51.230;4.012;2023-02-28T03:46:38;2.80;99.90
23544;DHT22;11950;51.230;4.012;2023-02-28T03:49:28;2.90;99.90
23544;DHT22;11950;51.230;4.012;2023-02-28T03:51:59;2.90;99.90
23544;DHT22;11950;51.230;4.012;2023-02-28T03:54:31;3.00;99.90
23544;DHT22;11950;51.230;4.012;2023-02-28T03:57:10;3.00;99.90
23544;DHT22;11950;51.230;4.012;2023-02-28T03:59:41;3.00;99.90
23544;DHT22;11950;51.230;4.012;2023-02-28T04:02:09;3.10;99.90
23544;DHT22;11950;51.230;4.012;2023-02-28T04:04:35;3.20;99.90
23544;DHT22;11950;51.230;4.012;2023-02-28T04:07:07;3.20;99.90
23544;DHT22;11950;51.230;4.012;2023-02-28T04:09:34;3.30;99.90
23544;DHT22;11950;51.230;4.012;2023-02-28T04:12:00;3.40;99.90
23544;DHT22;11950;51.230;4.012;2023-02-28T04:14:27;3.40;99.90
23544;DHT22;11950;51.230;4.012;2023-02-28T04:16:53;3.50;99.90
23544;DHT22;11950;51.230;4.012;2023-02-28T04:19:20;3.50;99.90
23544;DHT22;11950;51.230;4.012;2023-02-28T04:21:55;3.50;99.90
23544;DHT22;11950;51.230;4.012;2023-02-28T04:24:27;3.50;99.90
23544;DHT22;11950;51.230;4.012;2023-02-28T04:26:55;3.50;99.90
23544;DHT22;11950;51.230;4.012;2023-02-28T04:31:53;3.60;99.90
23544;DHT22;11950;51.230;4.012;2023-02-28T04:34:21;3.60;99.90
23544;DHT22;11950;51.230;4.012;2023-02-28T04:36:48;3.70;99.90
23544;DHT22;11950;51.230;4.012;2023-02-28T04:39:20;3.80;99.90
23544;DHT22;11950;51.230;4.012;2023-02-28T04:41:47;3.80;99.90
23544;DHT22;11950;51.230;4.012;2023-02-28T04:44:14;3.80;99.90
23544;DHT22;11950;51.230;4.012;2023-02-28T04:46:41;3.90;99.90
23544;DHT22;11950;51.230;4.012;2023-02-28T04:49:12;4.00;99.90
23544;DHT22;11950;51.230;4.012;2023-02-28T04:51:39;4.00;99.90
23544;DHT22;11950;51.230;4.012;2023-02-28T04:54:06;4.00;99.90
23544;DHT22;11950;51.230;4.012;2023-02-28T04:56:32;4.00;99.90
23544;DHT22;11950;51.230;4.012;2023-02-28T04:58:59;4.10;99.90
23544;DHT22;11950;51.230;4.012;2023-02-28T05:01:32;4.10;99.90
23544;DHT22;11950;51.230;4.012;2023-02-28T05:04:01;4.10;99.90
23544;DHT22;11950;51.230;4.012;2023-02-28T05:06:29;4.10;99.90
23544;DHT22;11950;51.230;4.012;2023-02-28T05:08:56;4.10;99.90
23544;DHT22;11950;51.230;4.012;2023-02-28T05:11:25;4.10;99.90
23544;DHT22;11950;51.230;4.012;2023-02-28T05:13:52;4.20;99.90
23544;DHT22;11950;51.230;4.012;2023-02-28T05:16:20;4.30;99.90
23544;DHT22;11950;51.230;4.012;2023-02-28T05:18:46;4.30;99.90
23544;DHT22;11950;51.230;4.012;2023-02-28T05:21:39;4.20;99.90
23544;DHT22;11950;51.230;4.012;2023-02-28T05:24:11;4.20;99.90
23544;DHT22;11950;51.230;4.012;2023-02-28T05:26:39;4.20;99.90
23544;DHT22;11950;51.230;4.012;2023-02-28T05:29:05;4.20;99.90
23544;DHT22;11950;51.230;4.012;2023-02-28T05:31:32;4.20;99.90
23544;DHT22;11950;51.230;4.012;2023-02-28T05:33:58;4.30;99.90
23544;DHT22;11950;51.230;4.012;2023-02-28T05:36:25;4.30;99.90
23544;DHT22;11950;51.230;4.012;2023-02-28T05:38:52;4.30;99.90
23544;DHT22;11950;51.230;4.012;2023-02-28T05:41:19;4.40;99.90
23544;DHT22;11950;51.230;4.012;2023-02-28T05:43:46;4.30;99.90
23544;DHT22;11950;51.230;4.012;2023-02-28T05:46:13;4.30;99.90
23544;DHT22;11950;51.230;4.012;2023-02-28T05:48:41;4.40;99.90
23544;DHT22;11950;51.230;4.012;2023-02-28T05:51:08;4.40;99.90
23544;DHT22;11950;51.230;4.012;2023-02-28T05:53:35;4.30;99.90
23544;DHT22;11950;51.230;4.012;2023-02-28T05:56:02;4.40;99.90
23544;DHT22;11950;51.230;4.012;2023-02-28T05:58:28;4.40;99.90
23544;DHT22;11950;51.230;4.012;2023-02-28T06:01:00;4.40;99.90
23544;DHT22;11950;51.230;4.012;2023-02-28T06:03:27;4.50;99.90
23544;DHT22;11950;51.230;4.012;2023-02-28T06:05:53;4.50;99.90
23544;DHT22;11950;51.230;4.012;2023-02-28T06:08:20;4.50;99.90
23544;DHT22;11950;51.230;4.012;2023-02-28T06:10:46;4.50;99.90
23544;DHT22;11950;51.230;4.012;2023-02-28T06:13:12;4.60;99.90
23544;DHT22;11950;51.230;4.012;2023-02-28T06:15:39;4.60;99.90
23544;DHT22;11950;51.230;4.012;2023-02-28T06:18:06;4.70;99.90
23544;DHT22;11950;51.230;4.012;2023-02-28T06:20:32;4.70;99.90
23544;DHT22;11950;51.230;4.012;2023-02-28T06:22:59;4.70;99.90
23544;DHT22;11950;51.230;4.012;2023-02-28T06:25:26;4.70;99.90
23544;DHT22;11950;51.230;4.012;2023-02-28T06:27:54;4.70;99.90
23544;DHT22;11950;51.230;4.012;2023-02-28T06:30:20;4.80;99.90
23544;DHT22;11950;51.230;4.012;2023-02-28T06:32:53;4.80;99.90
23544;DHT22;11950;51.230;4.012;2023-02-28T06:35:20;4.80;99.90
23544;DHT22;11950;51.230;4.012;2023-02-28T06:37:47;4.80;99.90
23544;DHT22;11950;51.230;4.012;2023-02-28T06:40:13;4.80;99.90
23544;DHT22;11950;51.230;4.012;2023-02-28T06:42:40;4.80;99.90
23544;DHT22;11950;51.230;4.012;2023-02-28T06:45:06;4.80;99.90
23544;DHT22;11950;51.230;4.012;2023-02-28T06:47:36;4.80;99.90
23544;DHT22;11950;51.230;4.012;2023-02-28T06:50:03;4.80;99.90
23544;DHT22;11950;51.230;4.012;2023-02-28T06:52:30;4.90;99.90
23544;DHT22;11950;51.230;4.012;2023-02-28T06:54:57;4.90;99.90
23544;DHT22;11950;51.230;4.012;2023-02-28T06:57:31;4.90;99.90
23544;DHT22;11950;51.230;4.012;2023-02-28T06:59:59;4.90;99.90
23544;DHT22;11950;51.230;4.012;2023-02-28T07:02:27;5.00;99.90
23544;DHT22;11950;51.230;4.012;2023-02-28T07:04:53;5.00;99.90
23544;DHT22;11950;51.230;4.012;2023-02-28T07:07:20;5.00;99.90
23544;DHT22;11950;51.230;4.012;2023-02-28T07:09:46;5.00;99.90
23544;DHT22;11950;51.230;4.012;2023-02-28T07:12:13;5.00;99.90
23544;DHT22;11950;51.230;4.012;2023-02-28T07:14:39;5.10;99.90
23544;DHT22;11950;51.230;4.012;2023-02-28T07:17:10;5.00;99.90
23544;DHT22;11950;51.230;4.012;2023-02-28T07:19:38;5.10;99.90
23544;DHT22;11950;51.230;4.012;2023-02-28T07:22:05;5.10;99.90
23544;DHT22;11950;51.230;4.012;2023-02-28T07:24:32;5.10;99.90
23544;DHT22;11950;51.230;4.012;2023-02-28T07:26:58;5.20;99.90
23544;DHT22;11950;51.230;4.012;2023-02-28T07:29:25;5.20;99.90
23544;DHT22;11950;51.230;4.012;2023-02-28T07:31:51;5.20;99.90
23544;DHT22;11950;51.230;4.012;2023-02-28T07:34:22;5.20;99.90
23544;DHT22;11950;51.230;4.012;2023-02-28T07:36:48;5.20;99.90
23544;DHT22;11950;51.230;4.012;2023-02-28T07:39:15;5.30;99.90
23544;DHT22;11950;51.230;4.012;2023-02-28T07:41:41;5.30;99.90
23544;DHT22;11950;51.230;4.012;2023-02-28T07:44:12;5.30;99.90
23544;DHT22;11950;51.230;4.012;2023-02-28T07:46:39;5.40;99.90
23544;DHT22;11950;51.230;4.012;2023-02-28T07:49:06;5.40;99.90
23544;DHT22;11950;51.230;4.012;2023-02-28T07:51:32;5.40;99.90
23544;DHT22;11950;51.230;4.012;2023-02-28T07:53:59;5.50;99.90
23544;DHT22;11950;51.230;4.012;2023-02-28T07:56:25;5.50;99.90
23544;DHT22;11950;51.230;4.012;2023-02-28T07:58:52;5.50;99.90
23544;DHT22;11950;51.230;4.012;2023-02-28T08:01:18;5.50;99.90
23544;DHT22;11950;51.230;4.012;2023-02-28T08:03:45;5.50;99.90
23544;DHT22;11950;51.230;4.012;2023-02-28T08:06:18;5.50;99.90
23544;DHT22;11950;51.230;4.012;2023-02-28T08:08:45;5.50;99.90
23544;DHT22;11950;51.230;4.012;2023-02-28T08:11:12;5.50;99.90
23544;DHT22;11950;51.230;4.012;2023-02-28T08:13:38;5.50;99.90
23544;DHT22;11950;51.230;4.012;2023-02-28T08:16:05;5.60;99.90
23544;DHT22;11950;51.230;4.012;2023-02-28T08:18:32;5.60;99.90
23544;DHT22;11950;51.230;4.012;2023-02-28T08:20:58;5.70;99.90
23544;DHT22;11950;51.230;4.012;2023-02-28T08:23:25;5.70;99.90
23544;DHT22;11950;51.230;4.012;2023-02-28T08:25:57;5.70;99.90
23544;DHT22;11950;51.230;4.012;2023-02-28T08:28:23;5.70;99.90
23544;DHT22;11950;51.230;4.012;2023-02-28T08:30:50;5.70;99.90
23544;DHT22;11950;51.230;4.012;2023-02-28T08:33:16;5.70;99.90
23544;DHT22;11950;51.230;4.012;2023-02-28T08:35:43;5.80;99.90
23544;DHT22;11950;51.230;4.012;2023-02-28T08:38:09;5.80;99.90
23544;DHT22;11950;51.230;4.012;2023-02-28T08:40:35;5.80;99.90
23544;DHT22;11950;51.230;4.012;2023-02-28T08:43:01;5.90;99.90
23544;DHT22;11950;51.230;4.012;2023-02-28T08:45:28;5.90;99.90
23544;DHT22;11950;51.230;4.012;2023-02-28T08:47:54;6.00;99.90
23544;DHT22;11950;51.230;4.012;2023-02-28T08:50:22;5.90;99.90
23544;DHT22;11950;51.230;4.012;2023-02-28T08:52:48;6.00;99.90
23544;DHT22;11950;51.230;4.012;2023-02-28T08:55:14;6.00;99.90
23544;DHT22;11950;51.230;4.012;2023-02-28T08:57:41;6.00;99.90
23544;DHT22;11950;51.230;4.012;2023-02-28T09:00:07;6.00;99.90
23544;DHT22;11950;51.230;4.012;2023-02-28T09:02:34;6.00;99.90
23544;DHT22;11950;51.230;4.012;2023-02-28T09:05:00;6.10;99.90
23544;DHT22;11950;51.230;4.012;2023-02-28T09:07:26;6.10;99.90
23544;DHT22;11950;51.230;4.012;2023-02-28T09:09:53;6.10;99.90
23544;DHT22;11950;51.230;4.012;2023-02-28T09:12:22;6.10;99.90
23544;DHT22;11950;51.230;4.012;2023-02-28T09:14:48;6.10;99.90
23544;DHT22;11950;51.230;4.012;2023-02-28T09:17:14;6.10;99.90
23544;DHT22;11950;51.230;4.012;2023-02-28T09:19:41;6.10;99.90
23544;DHT22;11950;51.230;4.012;2023-02-28T09:22:09;6.20;99.90
23544;DHT22;11950;51.230;4.012;2023-02-28T09:24:36;6.20;99.90
23544;DHT22;11950;51.230;4.012;2023-02-28T09:27:03;6.20;99.90
23544;DHT22;11950;51.230;4.012;2023-02-28T09:29:31;6.20;99.90
23544;DHT22;11950;51.230;4.012;2023-02-28T09:31:57;6.30;99.90
23544;DHT22;11950;51.230;4.012;2023-02-28T09:34:25;6.30;99.90
23544;DHT22;11950;51.230;4.012;2023-02-28T09:36:52;6.30;99.90
23544;DHT22;11950;51.230;4.012;2023-02-28T09:39:21;6.30;99.90
23544;DHT22;11950;51.230;4.012;2023-02-28T09:41:51;6.30;99.90
23544;DHT22;11950;51.230;4.012;2023-02-28T09:44:38;6.30;99.90
23544;DHT22;11950;51.230;4.012;2023-02-28T09:49:44;6.30;99.90
23544;DHT22;11950;51.230;4.012;2023-02-28T09:52:21;6.40;99.90
23544;DHT22;11950;51.230;4.012;2023-02-28T09:54:50;6.40;99.90
23544;DHT22;11950;51.230;4.012;2023-02-28T09:57:22;6.40;99.90
23544;DHT22;11950;51.230;4.012;2023-02-28T10:05:27;6.60;99.90
23544;DHT22;11950;51.230;4.012;2023-02-28T10:08:14;6.60;99.90
23544;DHT22;11950;51.230;4.012;2023-02-28T10:10:54;6.60;99.90
23544;DHT22;11950;51.230;4.012;2023-02-28T10:13:27;6.50;99.90
23544;DHT22;11950;51.230;4.012;2023-02-28T10:16:03;6.60;99.90
23544;DHT22;11950;51.230;4.012;2023-02-28T10:21:20;6.60;99.90
23544;DHT22;11950;51.230;4.012;2023-02-28T10:23:48;6.50;99.90
23544;DHT22;11950;51.230;4.012;2023-02-28T10:26:17;6.50;99.90
23544;DHT22;11950;51.230;4.012;2023-02-28T10:28:44;6.60;99.90
23544;DHT22;11950;51.230;4.012;2023-02-28T10:31:19;6.70;99.90
23544;DHT22;11950;51.230;4.012;2023-02-28T10:33:45;6.70;99.90
23544;DHT22;11950;51.230;4.012;2023-02-28T10:36:15;6.80;99.90
23544;DHT22;11950;51.230;4.012;2023-02-28T10:38:43;6.80;99.90
23544;DHT22;11950;51.230;4.012;2023-02-28T10:41:15;6.90;99.90
23544;DHT22;11950;51.230;4.012;2023-02-28T10:43:44;7.00;99.90
23544;DHT22;11950;51.230;4.012;2023-02-28T10:46:16;7.10;99.90
23544;DHT22;11950;51.230;4.012;2023-02-28T10:49:04;7.30;99.90
23544;DHT22;11950;51.230;4.012;2023-02-28T10:51:39;7.40;99.90
23544;DHT22;11950;51.230;4.012;2023-02-28T10:57:22;7.60;99.90
23544;DHT22;11950;51.230;4.012;2023-02-28T10:59:53;7.70;99.90
23544;DHT22;11950;51.230;4.012;2023-02-28T11:02:34;7.80;99.90
23544;DHT22;11950;51.230;4.012;2023-02-28T11:05:00;7.90;99.90
23544;DHT22;11950;51.230;4.012;2023-02-28T11:07:27;8.00;99.90
23544;DHT22;11950;51.230;4.012;2023-02-28T11:09:55;8.00;99.20
23544;DHT22;11950;51.230;4.012;2023-02-28T11:12:29;7.90;98.30
23544;DHT22;11950;51.230;4.012;2023-02-28T11:15:45;7.90;98.00
23544;DHT22;11950;51.230;4.012;2023-02-28T11:18:01;7.80;97.80
23544;DHT22;11950;51.230;4.012;2023-02-28T11:20:30;8.00;98.50
23544;DHT22;11950;51.230;4.012;2023-02-28T11:23:00;8.10;98.10
23544;DHT22;11950;51.230;4.012;2023-02-28T11:25:36;8.10;98.30
23544;DHT22;11950;51.230;4.012;2023-02-28T11:28:06;8.10;97.10
23544;DHT22;11950;51.230;4.012;2023-02-28T11:33:00;8.30;98.20
23544;DHT22;11950;51.230;4.012;2023-02-28T11:35:46;8.20;96.50
23544;DHT22;11950;51.230;4.012;2023-02-28T11:38:14;8.10;96.90
23544;DHT22;11950;51.230;4.012;2023-02-28T11:40:54;8.20;97.50
23544;DHT22;11950;51.230;4.012;2023-02-28T11:46:30;8.40;97.00
23544;DHT22;11950;51.230;4.012;2023-02-28T11:51:35;8.60;96.60
23544;DHT22;11950;51.230;4.012;2023-02-28T11:54:31;8.70;96.50
23544;DHT22;11950;51.230;4.012;2023-02-28T12:02:29;8.50;95.70
23544;DHT22;11950;51.230;4.012;2023-02-28T12:11:14;8.50;92.20
23544;DHT22;11950;51.230;4.012;2023-02-28T12:13:56;8.50;93.00
23544;DHT22;11950;51.230;4.012;2023-02-28T12:24:44;8.60;91.90
23544;DHT22;11950;51.230;4.012;2023-02-28T12:27:15;8.50;91.10
23544;DHT22;11950;51.230;4.012;2023-02-28T12:29:54;8.50;91.50
23544;DHT22;11950;51.230;4.012;2023-02-28T12:32:42;8.50;92.10
23544;DHT22;11950;51.230;4.012;2023-02-28T12:37:47;8.60;90.50
23544;DHT22;11950;51.230;4.012;2023-02-28T12:40:21;8.60;90.40
23544;DHT22;11950;51.230;4.012;2023-02-28T12:43:03;8.50;90.20
23544;DHT22;11950;51.230;4.012;2023-02-28T12:45:51;8.50;90.50
23544;DHT22;11950;51.230;4.012;2023-02-28T12:48:31;8.40;90.00
23544;DHT22;11950;51.230;4.012;2023-02-28T12:51:03;8.30;88.80
23544;DHT22;11950;51.230;4.012;2023-02-28T12:56:14;8.30;89.70
23544;DHT22;11950;51.230;4.012;2023-02-28T12:58:50;8.30;89.00
23544;DHT22;11950;51.230;4.012;2023-02-28T13:09:24;8.20;89.80
23544;DHT22;11950;51.230;4.012;2023-02-28T13:11:54;8.30;90.00
23544;DHT22;11950;51.230;4.012;2023-02-28T13:14:38;8.40;88.80
23544;DHT22;11950;51.230;4.012;2023-02-28T13:19:42;8.50;87.60
23544;DHT22;11950;51.230;4.012;2023-02-28T13:25:00;8.50;89.20
23544;DHT22;11950;51.230;4.012;2023-02-28T13:27:38;8.50;88.40
23544;DHT22;11950;51.230;4.012;2023-02-28T13:35:46;8.10;87.10
23544;DHT22;11950;51.230;4.012;2023-02-28T13:38:25;8.20;89.40
23544;DHT22;11950;51.230;4.012;2023-02-28T13:44:10;8.30;86.10
23544;DHT22;11950;51.230;4.012;2023-02-28T14:05:31;8.30;87.50
23544;DHT22;11950;51.230;4.012;2023-02-28T14:08:03;8.10;87.40
23544;DHT22;11950;51.230;4.012;2023-02-28T14:10:32;8.10;88.40
23544;DHT22;11950;51.230;4.012;2023-02-28T14:13:12;8.20;88.30
23544;DHT22;11950;51.230;4.012;2023-02-28T14:20:49;8.20;85.80
23544;DHT22;11950;51.230;4.012;2023-02-28T14:23:35;8.20;87.00
23544;DHT22;11950;51.230;4.012;2023-02-28T14:28:56;8.10;86.00
23544;DHT22;11950;51.230;4.012;2023-02-28T14:31:34;8.10;88.00
23544;DHT22;11950;51.230;4.012;2023-02-28T14:36:43;8.20;87.00
23544;DHT22;11950;51.230;4.012;2023-02-28T14:39:21;8.20;86.90
23544;DHT22;11950;51.230;4.012;2023-02-28T14:41:48;8.10;87.70
23544;DHT22;11950;51.230;4.012;2023-02-28T14:44:25;8.10;87.80
23544;DHT22;11950;51.230;4.012;2023-02-28T14:46:57;8.10;87.80
23544;DHT22;11950;51.230;4.012;2023-02-28T14:49:29;8.20;88.60
23544;DHT22;11950;51.230;4.012;2023-02-28T14:52:29;8.10;88.40
23544;DHT22;11950;51.230;4.012;2023-02-28T14:55:04;8.20;88.20
23544;DHT22;11950;51.230;4.012;2023-02-28T14:57:35;8.20;88.60
23544;DHT22;11950;51.230;4.012;2023-02-28T15:02:43;8.30;87.60
23544;DHT22;11950;51.230;4.012;2023-02-28T15:07:36;8.30;89.40
23544;DHT22;11950;51.230;4.012;2023-02-28T15:10:17;8.20;89.00
23544;DHT22;11950;51.230;4.012;2023-02-28T15:12:59;8.30;88.50
23544;DHT22;11950;51.230;4.012;2023-02-28T15:15:53;8.20;88.20
23544;DHT22;11950;51.230;4.012;2023-02-28T15:18:43;8.20;89.60
23544;DHT22;11950;51.230;4.012;2023-02-28T15:21:22;8.20;88.60
23544;DHT22;11950;51.230;4.012;2023-02-28T15:23:56;8.10;89.20
23544;DHT22;11950;51.230;4.012;2023-02-28T15:26:26;8.10;89.10
23544;DHT22;11950;51.230;4.012;2023-02-28T15:28:59;8.10;88.80
23544;DHT22;11950;51.230;4.012;2023-02-28T15:31:28;7.90;87.80
23544;DHT22;11950;51.230;4.012;2023-02-28T15:34:03;7.90;89.40
23544;DHT22;11950;51.230;4.012;2023-02-28T15:36:32;7.90;89.50
23544;DHT22;11950;51.230;4.012;2023-02-28T15:39:00;7.90;90.50
23544;DHT22;11950;51.230;4.012;2023-02-28T15:41:28;7.90;90.00
23544;DHT22;11950;51.230;4.012;2023-02-28T15:46:53;7.90;88.40
23544;DHT22;11950;51.230;4.012;2023-02-28T15:49:21;7.80;88.90
23544;DHT22;11950;51.230;4.012;2023-02-28T15:51:50;7.70;89.50
23544;DHT22;11950;51.230;4.012;2023-02-28T15:54:37;7.80;89.50
23544;DHT22;11950;51.230;4.012;2023-02-28T15:57:10;7.80;89.60
23544;DHT22;11950;51.230;4.012;2023-02-28T15:59:39;7.80;89.90
23544;DHT22;11950;51.230;4.012;2023-02-28T16:02:17;7.90;89.80
23544;DHT22;11950;51.230;4.012;2023-02-28T16:04:57;7.90;89.90
23544;DHT22;11950;51.230;4.012;2023-02-28T16:07:24;7.80;90.00
23544;DHT22;11950;51.230;4.012;2023-02-28T16:09:51;7.80;90.10
23544;DHT22;11950;51.230;4.012;2023-02-28T16:12:20;7.70;90.10
23544;DHT22;11950;51.230;4.012;2023-02-28T16:14:48;7.80;90.60
23544;DHT22;11950;51.230;4.012;2023-02-28T16:17:25;7.70;90.50
23544;DHT22;11950;51.230;4.012;2023-02-28T16:19:53;7.70;90.80
23544;DHT22;11950;51.230;4.012;2023-02-28T16:22:19;7.80;90.90
23544;DHT22;11950;51.230;4.012;2023-02-28T16:24:46;7.70;90.80
23544;DHT22;11950;51.230;4.012;2023-02-28T16:27:31;7.70;91.00
23544;DHT22;11950;51.230;4.012;2023-02-28T16:29:59;7.80;91.10
23544;DHT22;11950;51.230;4.012;2023-02-28T16:32:26;7.70;90.80
23544;DHT22;11950;51.230;4.012;2023-02-28T16:34:54;7.70;90.90
23544;DHT22;11950;51.230;4.012;2023-02-28T16:37:20;7.80;91.30
23544;DHT22;11950;51.230;4.012;2023-02-28T16:39:46;7.70;91.20
23544;DHT22;11950;51.230;4.012;2023-02-28T16:42:21;7.70;91.50
23544;DHT22;11950;51.230;4.012;2023-02-28T16:44:51;7.70;92.50
23544;DHT22;11950;51.230;4.012;2023-02-28T16:47:18;7.70;92.60
23544;DHT22;11950;51.230;4.012;2023-02-28T16:49:44;7.70;93.30
23544;DHT22;11950;51.230;4.012;2023-02-28T16:52:11;7.60;92.40
23544;DHT22;11950;51.230;4.012;2023-02-28T16:54:41;7.60;91.50
23544;DHT22;11950;51.230;4.012;2023-02-28T16:57:19;7.60;92.30
23544;DHT22;11950;51.230;4.012;2023-02-28T16:59:47;7.50;91.90
23544;DHT22;11950;51.230;4.012;2023-02-28T17:02:15;7.60;91.80
23544;DHT22;11950;51.230;4.012;2023-02-28T17:04:42;7.60;91.60
23544;DHT22;11950;51.230;4.012;2023-02-28T17:07:12;7.50;92.30
23544;DHT22;11950;51.230;4.012;2023-02-28T17:09:38;7.50;92.20
23544;DHT22;11950;51.230;4.012;2023-02-28T17:12:05;7.50;92.30
23544;DHT22;11950;51.230;4.012;2023-02-28T17:14:31;7.40;93.20
23544;DHT22;11950;51.230;4.012;2023-02-28T17:16:58;7.30;94.10
23544;DHT22;11950;51.230;4.012;2023-02-28T17:19:24;7.30;93.50
23544;DHT22;11950;51.230;4.012;2023-02-28T17:21:50;7.20;94.30
23544;DHT22;11950;51.230;4.012;2023-02-28T17:24:16;7.20;94.20
23544;DHT22;11950;51.230;4.012;2023-02-28T17:26:43;7.10;94.70
23544;DHT22;11950;51.230;4.012;2023-02-28T17:29:19;7.10;94.10
23544;DHT22;11950;51.230;4.012;2023-02-28T17:31:47;7.00;94.60
23544;DHT22;11950;51.230;4.012;2023-02-28T17:34:14;6.90;95.20
23544;DHT22;11950;51.230;4.012;2023-02-28T17:36:47;6.80;95.70
23544;DHT22;11950;51.230;4.012;2023-02-28T17:39:15;6.70;95.90
23544;DHT22;11950;51.230;4.012;2023-02-28T17:41:45;6.60;95.70
23544;DHT22;11950;51.230;4.012;2023-02-28T17:44:12;6.60;96.70
23544;DHT22;11950;51.230;4.012;2023-02-28T17:46:38;6.50;96.80
23544;DHT22;11950;51.230;4.012;2023-02-28T17:49:05;6.50;96.80
23544;DHT22;11950;51.230;4.012;2023-02-28T17:51:31;6.30;98.20
23544;DHT22;11950;51.230;4.012;2023-02-28T17:53:58;6.30;98.30
23544;DHT22;11950;51.230;4.012;2023-02-28T17:56:26;6.20;98.60
23544;DHT22;11950;51.230;4.012;2023-02-28T17:58:53;6.10;98.20
23544;DHT22;11950;51.230;4.012;2023-02-28T18:01:21;6.10;98.00
23544;DHT22;11950;51.230;4.012;2023-02-28T18:03:47;6.10;98.40
23544;DHT22;11950;51.230;4.012;2023-02-28T18:08:47;6.00;98.90
23544;DHT22;11950;51.230;4.012;2023-02-28T18:11:14;6.00;99.70
23544;DHT22;11950;51.230;4.012;2023-02-28T18:13:47;5.90;99.90
23544;DHT22;11950;51.230;4.012;2023-02-28T18:16:15;5.90;99.40
23544;DHT22;11950;51.230;4.012;2023-02-28T18:18:42;5.90;99.90
23544;DHT22;11950;51.230;4.012;2023-02-28T18:21:10;5.80;99.90
23544;DHT22;11950;51.230;4.012;2023-02-28T18:23:37;5.70;99.90
23544;DHT22;11950;51.230;4.012;2023-02-28T18:26:07;5.70;99.90
23544;DHT22;11950;51.230;4.012;2023-02-28T18:28:34;5.60;99.90
23544;DHT22;11950;51.230;4.012;2023-02-28T18:31:08;5.60;99.90
23544;DHT22;11950;51.230;4.012;2023-02-28T18:33:35;5.50;99.90